This is the latest recevied weather packets stored in our database for station/object KB3UQE. If no packets are shown the sender has not sent any weather packets the latest 10 day(s).
| Time | Temp. | Humidity | Pressure | Rain* | Wind** | Luminosity | Snow |
|---|---|---|---|---|---|---|---|
| 1777775308 | 35° C | 25% | 1012.5 hPa | - | - | - | - |
| 1777774073 | 35° C | 25% | 1012.5 hPa | - | - | - | - |
| 1777774048 | 13.89° C | 36% | 1010.9 hPa | - | - | - | - |
| 1777772968 | 13.89° C | 36% | 1010.9 hPa | - | - | - | - |
| 1777772490 | 13.89° C | 36% | 1010.9 hPa | - | - | - | - |
| 1777770322 | 13.89° C | 36% | 1010.9 hPa | - | - | - | - |
| 1777763928 | 13.89° C | 36% | 1010.9 hPa | - | - | - | - |
| 1777763901 | 15° C | 34% | 1010.6 hPa | - | - | - | - |
| 1777762488 | 15° C | 34% | 1010.6 hPa | - | - | - | - |
| 1777762461 | 16.11° C | 33% | 1010.6 hPa | - | - | - | - |
| 1777761045 | 16.11° C | 33% | 1010.6 hPa | - | - | - | - |
| 1777761020 | 17.78° C | 30% | 1010.5 hPa | - | - | - | - |
| 1777759605 | 17.78° C | 30% | 1010.5 hPa | - | - | - | - |
| 1777759580 | 35° C | 23% | 1010.5 hPa | - | - | - | - |
| 1777758165 | 35° C | 23% | 1010.5 hPa | - | - | - | - |
| 1777758140 | 33.89° C | 25% | 1010.4 hPa | - | - | - | - |
| 1777756725 | 33.89° C | 25% | 1010.4 hPa | - | - | - | - |
| 1777756700 | 34.44° C | 25% | 1010.4 hPa | - | - | - | - |
| 1777755284 | 34.44° C | 25% | 1010.4 hPa | - | - | - | - |
| 1777755259 | 33.89° C | 26% | 1010.3 hPa | - | - | - | - |
| 1777753844 | 33.89° C | 26% | 1010.3 hPa | - | - | - | - |
| 1777753819 | 33.89° C | 27% | 1010.4 hPa | - | - | - | - |
| 1777752584 | 33.89° C | 27% | 1010.4 hPa | - | - | - | - |
| 1777752559 | 20.56° C | 59% | 1006.8 hPa | - | - | - | - |
| 1777751479 | 20.56° C | 59% | 1006.8 hPa | - | - | - | - |
* Rain since midnight (hover to see other rain measurements)
** Current wind speed in m/s (hover to see current wind gust speed)